sensor_id;sensor_type;location;lat;lon;timestamp;P1;durP1;ratioP1;P2;durP2;ratioP2
33413;SDS011;60055;41.884;12.534;2023-08-20T00:00:28;10.35;;;5.45;;
33413;SDS011;60055;41.884;12.534;2023-08-20T00:02:56;12.10;;;5.90;;
33413;SDS011;60055;41.884;12.534;2023-08-20T00:05:28;11.10;;;5.13;;
33413;SDS011;60055;41.884;12.534;2023-08-20T00:07:54;9.48;;;5.18;;
33413;SDS011;60055;41.884;12.534;2023-08-20T00:10:19;10.73;;;4.88;;
33413;SDS011;60055;41.884;12.534;2023-08-20T00:12:44;9.10;;;5.40;;
33413;SDS011;60055;41.884;12.534;2023-08-20T00:15:10;10.48;;;5.03;;
33413;SDS011;60055;41.884;12.534;2023-08-20T00:17:37;11.77;;;5.07;;
33413;SDS011;60055;41.884;12.534;2023-08-20T00:20:05;13.63;;;5.05;;
33413;SDS011;60055;41.884;12.534;2023-08-20T00:22:37;11.20;;;5.30;;
33413;SDS011;60055;41.884;12.534;2023-08-20T00:25:04;14.68;;;5.13;;
33413;SDS011;60055;41.884;12.534;2023-08-20T00:27:31;8.07;;;5.22;;
33413;SDS011;60055;41.884;12.534;2023-08-20T00:29:57;13.45;;;5.65;;
33413;SDS011;60055;41.884;12.534;2023-08-20T00:32:22;8.38;;;4.85;;
33413;SDS011;60055;41.884;12.534;2023-08-20T00:34:48;6.78;;;4.80;;
33413;SDS011;60055;41.884;12.534;2023-08-20T00:37:13;7.47;;;4.47;;
33413;SDS011;60055;41.884;12.534;2023-08-20T00:39:39;9.70;;;4.57;;
33413;SDS011;60055;41.884;12.534;2023-08-20T00:42:04;14.27;;;4.75;;
33413;SDS011;60055;41.884;12.534;2023-08-20T00:44:30;9.35;;;4.55;;
33413;SDS011;60055;41.884;12.534;2023-08-20T00:46:56;10.85;;;4.57;;
33413;SDS011;60055;41.884;12.534;2023-08-20T00:49:22;7.15;;;4.32;;
33413;SDS011;60055;41.884;12.534;2023-08-20T00:51:48;6.05;;;4.10;;
33413;SDS011;60055;41.884;12.534;2023-08-20T00:54:15;7.45;;;4.32;;
33413;SDS011;60055;41.884;12.534;2023-08-20T00:56:40;10.18;;;4.68;;
33413;SDS011;60055;41.884;12.534;2023-08-20T00:59:06;9.43;;;4.20;;
33413;SDS011;60055;41.884;12.534;2023-08-20T01:01:32;8.10;;;4.50;;
33413;SDS011;60055;41.884;12.534;2023-08-20T01:03:57;9.77;;;4.20;;
33413;SDS011;60055;41.884;12.534;2023-08-20T01:06:26;7.13;;;3.90;;
33413;SDS011;60055;41.884;12.534;2023-08-20T01:09:05;8.43;;;3.80;;
33413;SDS011;60055;41.884;12.534;2023-08-20T01:11:47;9.82;;;4.10;;
33413;SDS011;60055;41.884;12.534;2023-08-20T01:14:20;7.82;;;4.05;;
33413;SDS011;60055;41.884;12.534;2023-08-20T01:16:45;7.85;;;3.65;;
33413;SDS011;60055;41.884;12.534;2023-08-20T01:19:12;8.35;;;3.97;;
33413;SDS011;60055;41.884;12.534;2023-08-20T01:22:27;8.23;;;3.60;;
33413;SDS011;60055;41.884;12.534;2023-08-20T01:27:58;7.75;;;3.60;;
33413;SDS011;60055;41.884;12.534;2023-08-20T01:30:46;5.85;;;3.80;;
33413;SDS011;60055;41.884;12.534;2023-08-20T01:33:12;8.73;;;4.35;;
33413;SDS011;60055;41.884;12.534;2023-08-20T01:35:39;9.23;;;4.10;;
33413;SDS011;60055;41.884;12.534;2023-08-20T01:38:05;4.50;;;3.70;;
33413;SDS011;60055;41.884;12.534;2023-08-20T01:40:31;4.97;;;3.58;;
33413;SDS011;60055;41.884;12.534;2023-08-20T01:42:56;9.10;;;3.42;;
33413;SDS011;60055;41.884;12.534;2023-08-20T01:45:22;7.28;;;3.70;;
33413;SDS011;60055;41.884;12.534;2023-08-20T01:47:48;7.07;;;3.70;;
33413;SDS011;60055;41.884;12.534;2023-08-20T01:50:13;9.55;;;3.97;;
33413;SDS011;60055;41.884;12.534;2023-08-20T01:52:39;8.68;;;3.80;;
33413;SDS011;60055;41.884;12.534;2023-08-20T01:55:04;6.35;;;3.53;;
33413;SDS011;60055;41.884;12.534;2023-08-20T01:57:30;6.22;;;3.60;;
33413;SDS011;60055;41.884;12.534;2023-08-20T01:59:56;7.65;;;3.90;;
33413;SDS011;60055;41.884;12.534;2023-08-20T02:02:23;6.15;;;3.45;;
33413;SDS011;60055;41.884;12.534;2023-08-20T02:04:48;7.88;;;3.80;;
33413;SDS011;60055;41.884;12.534;2023-08-20T02:07:13;5.63;;;3.80;;
33413;SDS011;60055;41.884;12.534;2023-08-20T02:09:39;5.07;;;3.78;;
33413;SDS011;60055;41.884;12.534;2023-08-20T02:12:04;6.75;;;3.63;;
33413;SDS011;60055;41.884;12.534;2023-08-20T02:14:30;6.32;;;3.72;;
33413;SDS011;60055;41.884;12.534;2023-08-20T02:16:59;7.22;;;3.80;;
33413;SDS011;60055;41.884;12.534;2023-08-20T02:19:25;5.53;;;3.60;;
33413;SDS011;60055;41.884;12.534;2023-08-20T02:21:51;7.03;;;3.50;;
33413;SDS011;60055;41.884;12.534;2023-08-20T02:24:18;5.30;;;3.60;;
33413;SDS011;60055;41.884;12.534;2023-08-20T02:26:43;7.40;;;3.85;;
33413;SDS011;60055;41.884;12.534;2023-08-20T02:29:09;6.18;;;3.80;;
33413;SDS011;60055;41.884;12.534;2023-08-20T02:31:35;7.05;;;3.53;;
33413;SDS011;60055;41.884;12.534;2023-08-20T02:34:00;8.63;;;3.80;;
33413;SDS011;60055;41.884;12.534;2023-08-20T02:36:26;6.45;;;3.53;;
33413;SDS011;60055;41.884;12.534;2023-08-20T02:38:51;7.55;;;3.47;;
33413;SDS011;60055;41.884;12.534;2023-08-20T02:41:17;5.35;;;3.83;;
33413;SDS011;60055;41.884;12.534;2023-08-20T02:43:42;4.68;;;3.47;;
33413;SDS011;60055;41.884;12.534;2023-08-20T02:46:08;5.30;;;3.58;;
33413;SDS011;60055;41.884;12.534;2023-08-20T02:48:33;5.28;;;3.92;;
33413;SDS011;60055;41.884;12.534;2023-08-20T02:50:59;7.75;;;3.60;;
33413;SDS011;60055;41.884;12.534;2023-08-20T02:53:24;7.40;;;3.63;;
33413;SDS011;60055;41.884;12.534;2023-08-20T02:55:50;5.57;;;3.75;;
33413;SDS011;60055;41.884;12.534;2023-08-20T02:58:15;6.80;;;3.80;;
33413;SDS011;60055;41.884;12.534;2023-08-20T03:00:41;4.32;;;3.80;;
33413;SDS011;60055;41.884;12.534;2023-08-20T03:03:08;5.63;;;3.80;;
33413;SDS011;60055;41.884;12.534;2023-08-20T03:05:34;7.20;;;4.20;;
33413;SDS011;60055;41.884;12.534;2023-08-20T03:08:00;6.07;;;3.97;;
33413;SDS011;60055;41.884;12.534;2023-08-20T03:10:26;8.30;;;4.22;;
33413;SDS011;60055;41.884;12.534;2023-08-20T03:12:52;4.28;;;3.88;;
33413;SDS011;60055;41.884;12.534;2023-08-20T03:15:18;5.60;;;4.20;;
33413;SDS011;60055;41.884;12.534;2023-08-20T03:17:43;6.88;;;4.00;;
33413;SDS011;60055;41.884;12.534;2023-08-20T03:20:09;7.93;;;4.03;;
33413;SDS011;60055;41.884;12.534;2023-08-20T03:22:35;7.13;;;4.45;;
33413;SDS011;60055;41.884;12.534;2023-08-20T03:25:02;5.03;;;4.03;;
33413;SDS011;60055;41.884;12.534;2023-08-20T03:27:28;8.10;;;4.15;;
33413;SDS011;60055;41.884;12.534;2023-08-20T03:29:53;7.25;;;4.32;;
33413;SDS011;60055;41.884;12.534;2023-08-20T03:32:19;6.97;;;4.70;;
33413;SDS011;60055;41.884;12.534;2023-08-20T03:34:44;9.40;;;4.20;;
33413;SDS011;60055;41.884;12.534;2023-08-20T03:37:10;5.93;;;4.47;;
33413;SDS011;60055;41.884;12.534;2023-08-20T03:39:35;6.07;;;4.60;;
33413;SDS011;60055;41.884;12.534;2023-08-20T03:42:00;9.07;;;4.70;;
33413;SDS011;60055;41.884;12.534;2023-08-20T03:44:26;6.55;;;4.50;;
33413;SDS011;60055;41.884;12.534;2023-08-20T03:46:51;9.75;;;4.32;;
33413;SDS011;60055;41.884;12.534;2023-08-20T03:49:17;6.22;;;4.50;;
33413;SDS011;60055;41.884;12.534;2023-08-20T03:51:42;5.82;;;4.22;;
33413;SDS011;60055;41.884;12.534;2023-08-20T03:54:08;8.30;;;4.70;;
33413;SDS011;60055;41.884;12.534;2023-08-20T03:56:34;6.80;;;4.55;;
33413;SDS011;60055;41.884;12.534;2023-08-20T03:59:00;7.68;;;4.30;;
33413;SDS011;60055;41.884;12.534;2023-08-20T04:01:25;7.20;;;4.18;;
33413;SDS011;60055;41.884;12.534;2023-08-20T04:03:50;7.38;;;4.35;;
33413;SDS011;60055;41.884;12.534;2023-08-20T04:06:16;7.03;;;4.28;;
33413;SDS011;60055;41.884;12.534;2023-08-20T04:08:41;5.88;;;4.40;;
33413;SDS011;60055;41.884;12.534;2023-08-20T04:11:07;6.95;;;4.80;;
33413;SDS011;60055;41.884;12.534;2023-08-20T04:13:33;7.78;;;4.88;;
33413;SDS011;60055;41.884;12.534;2023-08-20T04:15:58;7.93;;;4.68;;
33413;SDS011;60055;41.884;12.534;2023-08-20T04:18:24;9.43;;;4.60;;
33413;SDS011;60055;41.884;12.534;2023-08-20T04:20:50;7.68;;;4.72;;
33413;SDS011;60055;41.884;12.534;2023-08-20T04:23:17;5.78;;;4.68;;
33413;SDS011;60055;41.884;12.534;2023-08-20T04:25:44;8.52;;;4.97;;
33413;SDS011;60055;41.884;12.534;2023-08-20T04:28:10;7.63;;;4.65;;
33413;SDS011;60055;41.884;12.534;2023-08-20T04:30:36;5.40;;;4.20;;
33413;SDS011;60055;41.884;12.534;2023-08-20T04:33:01;6.25;;;4.45;;
33413;SDS011;60055;41.884;12.534;2023-08-20T04:35:27;7.22;;;4.80;;
33413;SDS011;60055;41.884;12.534;2023-08-20T04:37:53;7.80;;;4.80;;
33413;SDS011;60055;41.884;12.534;2023-08-20T04:40:18;7.43;;;4.70;;
33413;SDS011;60055;41.884;12.534;2023-08-20T04:42:44;6.05;;;4.82;;
33413;SDS011;60055;41.884;12.534;2023-08-20T04:45:09;7.43;;;4.93;;
33413;SDS011;60055;41.884;12.534;2023-08-20T04:47:35;5.80;;;4.93;;
33413;SDS011;60055;41.884;12.534;2023-08-20T04:50:01;8.52;;;4.63;;
33413;SDS011;60055;41.884;12.534;2023-08-20T04:52:27;8.13;;;4.93;;
33413;SDS011;60055;41.884;12.534;2023-08-20T04:54:52;6.43;;;4.88;;
33413;SDS011;60055;41.884;12.534;2023-08-20T04:57:18;7.55;;;4.78;;
33413;SDS011;60055;41.884;12.534;2023-08-20T04:59:43;5.80;;;4.60;;
33413;SDS011;60055;41.884;12.534;2023-08-20T05:02:10;7.25;;;4.68;;
33413;SDS011;60055;41.884;12.534;2023-08-20T05:04:37;10.02;;;4.78;;
33413;SDS011;60055;41.884;12.534;2023-08-20T05:07:03;7.72;;;4.60;;
33413;SDS011;60055;41.884;12.534;2023-08-20T05:09:28;5.85;;;4.68;;
33413;SDS011;60055;41.884;12.534;2023-08-20T05:11:54;6.55;;;4.70;;
33413;SDS011;60055;41.884;12.534;2023-08-20T05:14:20;9.13;;;4.85;;
33413;SDS011;60055;41.884;12.534;2023-08-20T05:16:45;8.90;;;4.70;;
33413;SDS011;60055;41.884;12.534;2023-08-20T05:19:10;7.00;;;4.43;;
33413;SDS011;60055;41.884;12.534;2023-08-20T05:21:36;10.82;;;4.97;;
33413;SDS011;60055;41.884;12.534;2023-08-20T05:24:01;8.05;;;4.88;;
33413;SDS011;60055;41.884;12.534;2023-08-20T05:26:27;6.90;;;4.80;;
33413;SDS011;60055;41.884;12.534;2023-08-20T05:28:52;7.15;;;4.45;;
33413;SDS011;60055;41.884;12.534;2023-08-20T05:31:18;7.03;;;4.80;;
33413;SDS011;60055;41.884;12.534;2023-08-20T05:33:43;7.13;;;4.78;;
33413;SDS011;60055;41.884;12.534;2023-08-20T05:36:08;6.32;;;4.75;;
33413;SDS011;60055;41.884;12.534;2023-08-20T05:38:34;9.82;;;5.20;;
33413;SDS011;60055;41.884;12.534;2023-08-20T05:40:59;6.95;;;4.70;;
33413;SDS011;60055;41.884;12.534;2023-08-20T05:43:25;6.35;;;4.50;;
33413;SDS011;60055;41.884;12.534;2023-08-20T05:45:50;12.48;;;5.57;;
33413;SDS011;60055;41.884;12.534;2023-08-20T05:48:15;8.57;;;4.90;;
33413;SDS011;60055;41.884;12.534;2023-08-20T05:50:41;7.20;;;4.47;;
33413;SDS011;60055;41.884;12.534;2023-08-20T05:53:06;8.95;;;5.10;;
33413;SDS011;60055;41.884;12.534;2023-08-20T05:55:32;7.25;;;4.60;;
33413;SDS011;60055;41.884;12.534;2023-08-20T05:57:57;9.32;;;4.97;;
33413;SDS011;60055;41.884;12.534;2023-08-20T06:00:23;6.18;;;4.38;;
33413;SDS011;60055;41.884;12.534;2023-08-20T06:02:48;5.85;;;4.30;;
33413;SDS011;60055;41.884;12.534;2023-08-20T06:05:13;9.93;;;4.78;;
33413;SDS011;60055;41.884;12.534;2023-08-20T06:07:39;6.53;;;4.18;;
33413;SDS011;60055;41.884;12.534;2023-08-20T06:10:06;7.80;;;4.70;;
33413;SDS011;60055;41.884;12.534;2023-08-20T06:12:32;8.90;;;4.88;;
33413;SDS011;60055;41.884;12.534;2023-08-20T06:14:57;8.48;;;4.88;;
33413;SDS011;60055;41.884;12.534;2023-08-20T06:17:23;8.27;;;4.75;;
33413;SDS011;60055;41.884;12.534;2023-08-20T06:19:48;8.15;;;5.05;;
33413;SDS011;60055;41.884;12.534;2023-08-20T06:22:14;7.55;;;4.55;;
33413;SDS011;60055;41.884;12.534;2023-08-20T06:24:39;8.88;;;5.47;;
33413;SDS011;60055;41.884;12.534;2023-08-20T06:27:04;6.88;;;4.90;;
33413;SDS011;60055;41.884;12.534;2023-08-20T06:29:30;6.32;;;5.22;;
33413;SDS011;60055;41.884;12.534;2023-08-20T06:31:56;7.50;;;5.13;;
33413;SDS011;60055;41.884;12.534;2023-08-20T06:34:21;7.05;;;5.30;;
33413;SDS011;60055;41.884;12.534;2023-08-20T06:36:47;8.80;;;5.50;;
33413;SDS011;60055;41.884;12.534;2023-08-20T06:39:14;6.97;;;5.35;;
33413;SDS011;60055;41.884;12.534;2023-08-20T06:41:40;7.38;;;5.80;;
33413;SDS011;60055;41.884;12.534;2023-08-20T06:44:06;9.63;;;5.63;;
33413;SDS011;60055;41.884;12.534;2023-08-20T06:46:32;6.95;;;5.50;;
33413;SDS011;60055;41.884;12.534;2023-08-20T06:48:57;8.35;;;6.20;;
33413;SDS011;60055;41.884;12.534;2023-08-20T06:51:23;9.52;;;5.70;;
33413;SDS011;60055;41.884;12.534;2023-08-20T06:53:49;8.77;;;5.80;;
33413;SDS011;60055;41.884;12.534;2023-08-20T06:56:14;8.60;;;6.10;;
33413;SDS011;60055;41.884;12.534;2023-08-20T06:58:40;7.03;;;5.97;;
33413;SDS011;60055;41.884;12.534;2023-08-20T07:01:07;8.20;;;6.28;;
33413;SDS011;60055;41.884;12.534;2023-08-20T07:03:37;8.65;;;6.35;;
33413;SDS011;60055;41.884;12.534;2023-08-20T07:06:03;9.30;;;6.18;;
33413;SDS011;60055;41.884;12.534;2023-08-20T07:08:29;10.70;;;6.22;;
33413;SDS011;60055;41.884;12.534;2023-08-20T07:10:54;8.02;;;6.53;;
33413;SDS011;60055;41.884;12.534;2023-08-20T07:13:20;12.13;;;6.50;;
33413;SDS011;60055;41.884;12.534;2023-08-20T07:15:45;11.82;;;6.30;;
33413;SDS011;60055;41.884;12.534;2023-08-20T07:18:11;8.15;;;6.70;;
33413;SDS011;60055;41.884;12.534;2023-08-20T07:20:38;9.57;;;6.95;;
33413;SDS011;60055;41.884;12.534;2023-08-20T07:23:04;9.60;;;6.68;;
33413;SDS011;60055;41.884;12.534;2023-08-20T07:25:30;7.63;;;6.72;;
33413;SDS011;60055;41.884;12.534;2023-08-20T07:27:55;10.82;;;7.18;;
33413;SDS011;60055;41.884;12.534;2023-08-20T07:30:24;8.02;;;6.95;;
33413;SDS011;60055;41.884;12.534;2023-08-20T07:32:50;8.80;;;7.32;;
33413;SDS011;60055;41.884;12.534;2023-08-20T07:35:15;10.25;;;7.10;;
33413;SDS011;60055;41.884;12.534;2023-08-20T07:37:41;9.60;;;7.20;;
33413;SDS011;60055;41.884;12.534;2023-08-20T07:40:06;9.65;;;7.63;;
33413;SDS011;60055;41.884;12.534;2023-08-20T07:42:32;8.57;;;7.55;;
33413;SDS011;60055;41.884;12.534;2023-08-20T07:44:58;9.52;;;7.70;;
33413;SDS011;60055;41.884;12.534;2023-08-20T07:47:23;9.38;;;7.50;;
33413;SDS011;60055;41.884;12.534;2023-08-20T07:49:49;11.30;;;8.00;;
33413;SDS011;60055;41.884;12.534;2023-08-20T07:52:14;11.18;;;7.65;;
33413;SDS011;60055;41.884;12.534;2023-08-20T07:54:39;9.25;;;7.40;;
33413;SDS011;60055;41.884;12.534;2023-08-20T07:57:05;13.18;;;7.60;;
33413;SDS011;60055;41.884;12.534;2023-08-20T07:59:30;8.95;;;7.68;;
33413;SDS011;60055;41.884;12.534;2023-08-20T08:01:59;9.45;;;7.68;;
33413;SDS011;60055;41.884;12.534;2023-08-20T08:04:26;8.43;;;7.40;;
33413;SDS011;60055;41.884;12.534;2023-08-20T08:06:52;9.68;;;7.35;;
33413;SDS011;60055;41.884;12.534;2023-08-20T08:09:20;9.95;;;7.70;;
33413;SDS011;60055;41.884;12.534;2023-08-20T08:11:51;9.35;;;7.53;;
33413;SDS011;60055;41.884;12.534;2023-08-20T08:14:17;12.23;;;7.60;;
33413;SDS011;60055;41.884;12.534;2023-08-20T08:16:42;12.80;;;8.40;;
33413;SDS011;60055;41.884;12.534;2023-08-20T08:19:09;15.18;;;10.88;;
33413;SDS011;60055;41.884;12.534;2023-08-20T08:21:35;12.80;;;10.57;;
33413;SDS011;60055;41.884;12.534;2023-08-20T08:24:00;12.00;;;8.68;;
33413;SDS011;60055;41.884;12.534;2023-08-20T08:26:26;9.15;;;7.70;;
33413;SDS011;60055;41.884;12.534;2023-08-20T08:28:51;9.25;;;7.88;;
33413;SDS011;60055;41.884;12.534;2023-08-20T08:31:17;9.43;;;7.70;;
33413;SDS011;60055;41.884;12.534;2023-08-20T08:33:42;23.08;;;18.55;;
33413;SDS011;60055;41.884;12.534;2023-08-20T08:36:07;33.15;;;24.10;;
33413;SDS011;60055;41.884;12.534;2023-08-20T08:38:33;24.38;;;18.88;;
33413;SDS011;60055;41.884;12.534;2023-08-20T08:40:59;23.90;;;17.25;;
33413;SDS011;60055;41.884;12.534;2023-08-20T08:43:26;21.75;;;16.55;;
33413;SDS011;60055;41.884;12.534;2023-08-20T08:45:53;19.27;;;12.48;;
33413;SDS011;60055;41.884;12.534;2023-08-20T08:48:21;15.23;;;10.20;;
33413;SDS011;60055;41.884;12.534;2023-08-20T08:50:46;11.60;;;9.43;;
33413;SDS011;60055;41.884;12.534;2023-08-20T08:53:12;9.10;;;7.85;;
33413;SDS011;60055;41.884;12.534;2023-08-20T08:55:38;10.90;;;8.43;;
33413;SDS011;60055;41.884;12.534;2023-08-20T08:58:04;13.82;;;8.43;;
33413;SDS011;60055;41.884;12.534;2023-08-20T09:00:29;13.27;;;8.60;;
33413;SDS011;60055;41.884;12.534;2023-08-20T09:02:57;13.20;;;8.20;;
33413;SDS011;60055;41.884;12.534;2023-08-20T09:05:23;10.32;;;8.27;;
33413;SDS011;60055;41.884;12.534;2023-08-20T09:07:49;10.82;;;8.70;;
33413;SDS011;60055;41.884;12.534;2023-08-20T09:12:47;11.88;;;8.90;;
33413;SDS011;60055;41.884;12.534;2023-08-20T09:15:13;10.02;;;8.60;;
33413;SDS011;60055;41.884;12.534;2023-08-20T09:17:40;11.10;;;8.90;;
33413;SDS011;60055;41.884;12.534;2023-08-20T09:20:07;10.57;;;8.90;;
33413;SDS011;60055;41.884;12.534;2023-08-20T09:22:33;9.95;;;8.73;;
33413;SDS011;60055;41.884;12.534;2023-08-20T09:25:02;9.90;;;8.13;;
33413;SDS011;60055;41.884;12.534;2023-08-20T09:27:28;11.85;;;8.48;;
33413;SDS011;60055;41.884;12.534;2023-08-20T09:29:55;11.40;;;9.23;;
33413;SDS011;60055;41.884;12.534;2023-08-20T09:32:23;11.00;;;8.68;;
33413;SDS011;60055;41.884;12.534;2023-08-20T09:34:50;12.43;;;9.18;;
33413;SDS011;60055;41.884;12.534;2023-08-20T09:37:18;12.40;;;9.60;;
33413;SDS011;60055;41.884;12.534;2023-08-20T09:39:45;10.35;;;8.13;;
33413;SDS011;60055;41.884;12.534;2023-08-20T09:42:11;11.13;;;9.32;;
33413;SDS011;60055;41.884;12.534;2023-08-20T09:44:40;12.07;;;8.88;;
33413;SDS011;60055;41.884;12.534;2023-08-20T09:49:40;12.85;;;10.02;;
33413;SDS011;60055;41.884;12.534;2023-08-20T09:52:08;11.15;;;9.55;;
33413;SDS011;60055;41.884;12.534;2023-08-20T09:57:06;12.68;;;9.00;;
33413;SDS011;60055;41.884;12.534;2023-08-20T09:59:36;13.02;;;9.45;;
33413;SDS011;60055;41.884;12.534;2023-08-20T10:02:03;10.48;;;8.77;;
33413;SDS011;60055;41.884;12.534;2023-08-20T10:04:29;13.02;;;9.75;;
33413;SDS011;60055;41.884;12.534;2023-08-20T10:06:55;11.23;;;9.30;;
33413;SDS011;60055;41.884;12.534;2023-08-20T10:09:23;14.65;;;9.57;;
33413;SDS011;60055;41.884;12.534;2023-08-20T10:11:49;14.55;;;9.85;;
33413;SDS011;60055;41.884;12.534;2023-08-20T10:14:15;10.45;;;9.35;;
33413;SDS011;60055;41.884;12.534;2023-08-20T10:16:40;10.70;;;9.00;;
33413;SDS011;60055;41.884;12.534;2023-08-20T10:19:06;9.82;;;8.82;;
33413;SDS011;60055;41.884;12.534;2023-08-20T10:21:32;12.52;;;9.50;;
33413;SDS011;60055;41.884;12.534;2023-08-20T10:24:02;11.98;;;8.90;;
33413;SDS011;60055;41.884;12.534;2023-08-20T10:26:29;11.52;;;9.02;;
33413;SDS011;60055;41.884;12.534;2023-08-20T10:29:33;10.93;;;9.82;;
33413;SDS011;60055;41.884;12.534;2023-08-20T10:31:58;10.68;;;9.55;;
33413;SDS011;60055;41.884;12.534;2023-08-20T10:34:36;11.95;;;9.02;;
33413;SDS011;60055;41.884;12.534;2023-08-20T10:37:12;10.98;;;8.95;;
33413;SDS011;60055;41.884;12.534;2023-08-20T10:39:38;10.15;;;9.15;;
33413;SDS011;60055;41.884;12.534;2023-08-20T10:44:56;12.05;;;8.38;;
33413;SDS011;60055;41.884;12.534;2023-08-20T10:50:07;10.80;;;9.25;;
33413;SDS011;60055;41.884;12.534;2023-08-20T10:52:39;10.57;;;9.07;;
33413;SDS011;60055;41.884;12.534;2023-08-20T10:55:06;9.93;;;8.73;;
33413;SDS011;60055;41.884;12.534;2023-08-20T10:57:34;12.02;;;8.60;;
33413;SDS011;60055;41.884;12.534;2023-08-20T11:00:01;10.15;;;8.85;;
33413;SDS011;60055;41.884;12.534;2023-08-20T11:02:34;12.82;;;9.57;;
33413;SDS011;60055;41.884;12.534;2023-08-20T11:05:01;10.68;;;8.98;;
33413;SDS011;60055;41.884;12.534;2023-08-20T11:07:29;9.80;;;8.40;;
33413;SDS011;60055;41.884;12.534;2023-08-20T11:09:57;13.90;;;9.73;;
33413;SDS011;60055;41.884;12.534;2023-08-20T11:12:22;9.90;;;8.77;;
33413;SDS011;60055;41.884;12.534;2023-08-20T11:14:48;11.15;;;9.10;;
33413;SDS011;60055;41.884;12.534;2023-08-20T11:17:13;9.73;;;8.43;;
33413;SDS011;60055;41.884;12.534;2023-08-20T11:19:39;12.15;;;8.98;;
33413;SDS011;60055;41.884;12.534;2023-08-20T11:22:05;10.23;;;9.05;;
33413;SDS011;60055;41.884;12.534;2023-08-20T11:24:30;12.48;;;9.93;;
33413;SDS011;60055;41.884;12.534;2023-08-20T11:26:56;9.95;;;8.95;;
33413;SDS011;60055;41.884;12.534;2023-08-20T11:29:21;12.60;;;9.25;;
33413;SDS011;60055;41.884;12.534;2023-08-20T11:31:47;10.32;;;9.23;;
33413;SDS011;60055;41.884;12.534;2023-08-20T11:34:13;12.32;;;8.80;;
33413;SDS011;60055;41.884;12.534;2023-08-20T11:36:39;11.50;;;8.57;;
33413;SDS011;60055;41.884;12.534;2023-08-20T11:39:05;12.05;;;9.30;;
33413;SDS011;60055;41.884;12.534;2023-08-20T11:41:35;9.90;;;8.90;;
33413;SDS011;60055;41.884;12.534;2023-08-20T11:44:01;11.10;;;8.63;;
33413;SDS011;60055;41.884;12.534;2023-08-20T11:46:28;9.98;;;8.55;;
33413;SDS011;60055;41.884;12.534;2023-08-20T11:49:06;12.35;;;9.00;;
33413;SDS011;60055;41.884;12.534;2023-08-20T11:51:36;11.05;;;9.50;;
33413;SDS011;60055;41.884;12.534;2023-08-20T11:54:07;12.07;;;9.25;;
33413;SDS011;60055;41.884;12.534;2023-08-20T11:56:42;10.80;;;9.38;;
33413;SDS011;60055;41.884;12.534;2023-08-20T11:59:11;11.25;;;9.25;;
33413;SDS011;60055;41.884;12.534;2023-08-20T12:01:37;11.77;;;9.50;;
33413;SDS011;60055;41.884;12.534;2023-08-20T12:04:03;14.32;;;9.77;;
33413;SDS011;60055;41.884;12.534;2023-08-20T12:06:29;10.45;;;9.35;;
33413;SDS011;60055;41.884;12.534;2023-08-20T12:08:56;10.75;;;8.98;;
33413;SDS011;60055;41.884;12.534;2023-08-20T12:11:26;12.95;;;9.10;;
33413;SDS011;60055;41.884;12.534;2023-08-20T12:13:52;11.95;;;9.25;;
33413;SDS011;60055;41.884;12.534;2023-08-20T12:16:18;12.30;;;9.07;;
33413;SDS011;60055;41.884;12.534;2023-08-20T12:18:45;11.25;;;8.95;;
33413;SDS011;60055;41.884;12.534;2023-08-20T12:21:11;13.15;;;8.82;;
33413;SDS011;60055;41.884;12.534;2023-08-20T12:23:37;9.85;;;8.82;;
33413;SDS011;60055;41.884;12.534;2023-08-20T12:26:02;10.48;;;8.75;;
33413;SDS011;60055;41.884;12.534;2023-08-20T12:28:28;10.88;;;9.00;;
33413;SDS011;60055;41.884;12.534;2023-08-20T12:30:53;10.38;;;9.20;;
33413;SDS011;60055;41.884;12.534;2023-08-20T12:33:19;33.90;;;27.05;;
33413;SDS011;60055;41.884;12.534;2023-08-20T12:35:46;10.15;;;8.93;;
33413;SDS011;60055;41.884;12.534;2023-08-20T12:38:11;10.40;;;9.30;;
33413;SDS011;60055;41.884;12.534;2023-08-20T12:40:37;10.55;;;8.32;;
33413;SDS011;60055;41.884;12.534;2023-08-20T12:43:02;12.82;;;9.50;;
33413;SDS011;60055;41.884;12.534;2023-08-20T12:45:28;10.35;;;8.57;;
33413;SDS011;60055;41.884;12.534;2023-08-20T12:47:54;10.45;;;8.65;;
33413;SDS011;60055;41.884;12.534;2023-08-20T12:50:19;11.65;;;9.02;;
33413;SDS011;60055;41.884;12.534;2023-08-20T12:52:45;9.88;;;8.88;;
33413;SDS011;60055;41.884;12.534;2023-08-20T12:55:12;9.55;;;8.60;;
33413;SDS011;60055;41.884;12.534;2023-08-20T12:57:41;11.82;;;9.25;;
33413;SDS011;60055;41.884;12.534;2023-08-20T13:00:18;9.52;;;8.55;;
33413;SDS011;60055;41.884;12.534;2023-08-20T13:02:44;11.48;;;8.70;;
33413;SDS011;60055;41.884;12.534;2023-08-20T13:05:09;10.98;;;8.88;;
33413;SDS011;60055;41.884;12.534;2023-08-20T13:07:36;10.35;;;8.80;;
33413;SDS011;60055;41.884;12.534;2023-08-20T13:10:02;10.52;;;8.88;;
33413;SDS011;60055;41.884;12.534;2023-08-20T13:12:28;9.95;;;8.80;;
33413;SDS011;60055;41.884;12.534;2023-08-20T13:14:57;11.25;;;8.80;;
33413;SDS011;60055;41.884;12.534;2023-08-20T13:17:23;9.35;;;8.45;;
33413;SDS011;60055;41.884;12.534;2023-08-20T13:19:49;10.63;;;9.15;;
33413;SDS011;60055;41.884;12.534;2023-08-20T13:22:15;12.90;;;8.82;;
33413;SDS011;60055;41.884;12.534;2023-08-20T13:24:40;11.27;;;8.77;;
33413;SDS011;60055;41.884;12.534;2023-08-20T13:27:06;10.93;;;8.70;;
33413;SDS011;60055;41.884;12.534;2023-08-20T13:29:31;9.07;;;8.18;;
33413;SDS011;60055;41.884;12.534;2023-08-20T13:31:57;11.52;;;8.80;;
33413;SDS011;60055;41.884;12.534;2023-08-20T13:34:22;12.07;;;8.90;;
33413;SDS011;60055;41.884;12.534;2023-08-20T13:36:48;10.95;;;8.30;;
33413;SDS011;60055;41.884;12.534;2023-08-20T13:39:13;13.10;;;8.85;;
33413;SDS011;60055;41.884;12.534;2023-08-20T13:41:39;10.23;;;8.88;;
33413;SDS011;60055;41.884;12.534;2023-08-20T13:44:05;10.98;;;8.65;;
33413;SDS011;60055;41.884;12.534;2023-08-20T13:46:31;9.38;;;8.45;;
33413;SDS011;60055;41.884;12.534;2023-08-20T13:48:57;9.32;;;8.10;;
33413;SDS011;60055;41.884;12.534;2023-08-20T13:51:22;9.82;;;8.07;;
33413;SDS011;60055;41.884;12.534;2023-08-20T13:53:48;9.98;;;7.80;;
33413;SDS011;60055;41.884;12.534;2023-08-20T13:56:13;11.02;;;8.30;;
33413;SDS011;60055;41.884;12.534;2023-08-20T13:58:39;10.48;;;8.68;;
33413;SDS011;60055;41.884;12.534;2023-08-20T14:01:04;10.60;;;7.93;;
33413;SDS011;60055;41.884;12.534;2023-08-20T14:03:30;9.88;;;7.85;;
33413;SDS011;60055;41.884;12.534;2023-08-20T14:05:55;11.50;;;8.43;;
33413;SDS011;60055;41.884;12.534;2023-08-20T14:08:21;9.98;;;7.25;;
33413;SDS011;60055;41.884;12.534;2023-08-20T14:10:47;12.48;;;7.20;;
33413;SDS011;60055;41.884;12.534;2023-08-20T14:13:12;9.82;;;7.65;;
33413;SDS011;60055;41.884;12.534;2023-08-20T14:15:38;12.48;;;7.95;;
33413;SDS011;60055;41.884;12.534;2023-08-20T14:18:03;13.20;;;7.03;;
33413;SDS011;60055;41.884;12.534;2023-08-20T14:20:29;12.93;;;7.38;;
33413;SDS011;60055;41.884;12.534;2023-08-20T14:22:54;10.85;;;7.50;;
33413;SDS011;60055;41.884;12.534;2023-08-20T14:25:20;9.27;;;7.50;;
33413;SDS011;60055;41.884;12.534;2023-08-20T14:27:45;11.00;;;7.30;;
33413;SDS011;60055;41.884;12.534;2023-08-20T14:30:11;9.95;;;6.75;;
33413;SDS011;60055;41.884;12.534;2023-08-20T14:32:36;9.95;;;7.57;;
33413;SDS011;60055;41.884;12.534;2023-08-20T14:35:02;9.20;;;7.50;;
33413;SDS011;60055;41.884;12.534;2023-08-20T14:37:28;9.77;;;6.78;;
33413;SDS011;60055;41.884;12.534;2023-08-20T14:39:53;9.50;;;6.65;;